createdAt,value
2018-07-25T00:02:12.617Z,4.60
2018-07-25T00:04:39.532Z,6.67
2018-07-25T00:07:06.442Z,6.77
2018-07-25T00:09:33.344Z,5.93
2018-07-25T00:12:00.241Z,4.87
2018-07-25T00:14:27.151Z,3.30
2018-07-25T00:16:54.017Z,10.00
2018-07-25T00:19:20.932Z,5.13
2018-07-25T00:21:47.849Z,4.37
2018-07-25T00:24:14.764Z,6.90
2018-07-25T00:26:41.669Z,6.60
2018-07-25T00:29:08.585Z,8.60
2018-07-25T00:31:35.497Z,7.03
2018-07-25T00:34:02.420Z,6.47
2018-07-25T00:36:29.309Z,7.03
2018-07-25T00:38:56.216Z,6.07
2018-07-25T00:41:23.124Z,5.83
2018-07-25T00:43:50.025Z,8.87
2018-07-25T00:46:16.934Z,6.93
2018-07-25T00:48:43.853Z,9.13
2018-07-25T00:51:10.756Z,5.33
2018-07-25T00:53:37.709Z,5.30
2018-07-25T00:56:04.633Z,4.80
2018-07-25T00:58:31.547Z,6.13
2018-07-25T01:00:58.494Z,5.93
2018-07-25T01:03:25.392Z,8.20
2018-07-25T01:05:52.297Z,5.70
2018-07-25T01:08:19.219Z,4.50
2018-07-25T01:10:46.116Z,7.60
2018-07-25T01:13:13.035Z,6.50
2018-07-25T01:15:40.144Z,5.43
2018-07-25T01:18:07.276Z,5.93
2018-07-25T01:20:34.208Z,4.17
2018-07-25T01:23:01.120Z,3.70
2018-07-25T01:25:28.017Z,4.87
2018-07-25T01:27:54.913Z,4.50
2018-07-25T01:30:21.840Z,4.10
2018-07-25T01:32:48.729Z,4.77
2018-07-25T01:35:15.625Z,3.93
2018-07-25T01:37:42.523Z,4.93
2018-07-25T01:40:09.432Z,4.27
2018-07-25T01:42:36.337Z,3.87
2018-07-25T01:45:03.360Z,4.50
2018-07-25T01:47:30.249Z,5.57
2018-07-25T01:49:57.180Z,4.63
2018-07-25T01:52:24.091Z,5.97
2018-07-25T01:54:51.015Z,4.77
2018-07-25T01:57:17.922Z,4.70
2018-07-25T01:59:44.822Z,5.17
2018-07-25T02:02:11.729Z,4.33
2018-07-25T02:04:38.636Z,5.07
2018-07-25T02:07:05.537Z,4.40
2018-07-25T02:09:32.478Z,4.40
2018-07-25T02:11:59.367Z,4.20
2018-07-25T02:14:26.268Z,5.83
2018-07-25T02:16:53.191Z,5.97
2018-07-25T02:19:20.101Z,7.93
2018-07-25T02:21:47.013Z,5.33
2018-07-25T02:24:13.904Z,4.73
2018-07-25T02:26:40.824Z,5.47
2018-07-25T02:29:08.226Z,5.20
2018-07-25T02:31:35.136Z,5.47
2018-07-25T02:34:07.860Z,5.47
2018-07-25T02:36:34.764Z,5.47
2018-07-25T02:39:01.660Z,5.80
2018-07-25T02:41:28.562Z,4.23
2018-07-25T02:43:55.456Z,5.20
2018-07-25T02:46:22.353Z,4.63
2018-07-25T02:48:49.245Z,4.27
2018-07-25T02:51:16.137Z,4.20
2018-07-25T02:53:43.032Z,4.87
2018-07-25T02:56:09.928Z,6.23
2018-07-25T02:58:36.825Z,5.47
2018-07-25T03:01:03.764Z,5.43
2018-07-25T03:03:30.658Z,5.63
2018-07-25T03:05:57.623Z,5.70
2018-07-25T03:08:24.525Z,5.50
2018-07-25T03:10:53.727Z,5.20
2018-07-25T03:13:21.044Z,4.70
2018-07-25T03:16:01.198Z,4.90
2018-07-25T03:18:28.464Z,5.20
2018-07-25T03:20:55.486Z,7.00
2018-07-25T03:23:22.488Z,6.50
2018-07-25T03:25:49.409Z,5.13
2018-07-25T03:28:16.325Z,7.07
2018-07-25T03:30:43.261Z,6.73
2018-07-25T03:33:10.260Z,6.17
2018-07-25T03:35:37.201Z,5.20
2018-07-25T03:38:04.252Z,5.67
2018-07-25T03:40:31.211Z,5.80
2018-07-25T03:42:58.137Z,5.03
2018-07-25T03:45:25.065Z,3.73
2018-07-25T03:47:52.008Z,4.63
2018-07-25T03:50:18.933Z,5.17
2018-07-25T03:52:45.879Z,4.67
2018-07-25T03:55:12.809Z,5.97
2018-07-25T03:57:39.729Z,6.93
2018-07-25T04:00:06.661Z,4.90
2018-07-25T04:02:33.625Z,4.20
2018-07-25T04:05:00.520Z,5.03
2018-07-25T04:07:27.444Z,4.73
2018-07-25T04:09:54.358Z,4.87
2018-07-25T04:12:21.304Z,5.50
2018-07-25T04:14:48.253Z,4.90
2018-07-25T04:17:15.164Z,5.27
2018-07-25T04:19:42.093Z,4.80
2018-07-25T04:22:09.048Z,6.77
2018-07-25T04:24:36.063Z,8.67
2018-07-25T04:27:02.981Z,6.47
2018-07-25T04:29:29.924Z,7.00
2018-07-25T04:31:56.836Z,6.07
2018-07-25T04:34:23.744Z,6.47
2018-07-25T04:36:50.685Z,6.13
2018-07-25T04:39:17.627Z,7.60
2018-07-25T04:41:44.587Z,5.97
2018-07-25T04:44:11.489Z,8.90
2018-07-25T04:46:38.633Z,6.43
2018-07-25T04:49:05.489Z,6.23
2018-07-25T04:51:32.397Z,5.87
2018-07-25T04:53:59.316Z,6.07
2018-07-25T04:56:26.245Z,6.37
2018-07-25T04:58:53.192Z,6.67
2018-07-25T05:01:20.139Z,6.47
2018-07-25T05:03:47.068Z,8.00
2018-07-25T05:06:13.987Z,5.83
2018-07-25T05:08:41.375Z,6.53
2018-07-25T05:11:08.307Z,6.40
2018-07-25T05:13:35.212Z,8.00
2018-07-25T05:16:02.134Z,7.10
2018-07-25T05:18:29.073Z,7.23
2018-07-25T05:20:55.996Z,6.80
2018-07-25T05:23:22.993Z,6.70
2018-07-25T05:25:49.911Z,11.03
2018-07-25T05:28:16.866Z,4.97
2018-07-25T05:30:43.789Z,6.43
2018-07-25T05:33:10.733Z,7.43
2018-07-25T05:35:37.661Z,5.20
2018-07-25T05:38:04.594Z,5.57
2018-07-25T05:40:31.509Z,5.10
2018-07-25T05:42:58.456Z,5.30
2018-07-25T05:45:25.441Z,5.77
2018-07-25T05:47:52.384Z,4.87
2018-07-25T05:50:19.300Z,5.37
2018-07-25T05:52:46.210Z,5.20
2018-07-25T05:55:13.120Z,4.70
2018-07-25T05:57:40.033Z,6.00
2018-07-25T06:00:06.980Z,7.83
2018-07-25T06:02:33.897Z,6.33
2018-07-25T06:05:00.896Z,6.87
2018-07-25T06:07:27.832Z,4.93
2018-07-25T06:09:54.724Z,6.00
2018-07-25T06:12:21.688Z,5.40
2018-07-25T06:14:48.604Z,7.33
2018-07-25T06:17:15.533Z,4.90
2018-07-25T06:19:42.429Z,4.40
2018-07-25T06:22:09.387Z,5.20
2018-07-25T06:24:36.307Z,4.77
2018-07-25T06:27:03.237Z,5.27
2018-07-25T06:29:30.188Z,5.17
2018-07-25T06:31:57.131Z,4.30
2018-07-25T06:34:24.060Z,4.00
2018-07-25T06:36:51.175Z,3.90
2018-07-25T06:39:18.085Z,4.27
2018-07-25T06:41:45.008Z,4.50
2018-07-25T06:44:11.933Z,3.93
2018-07-25T06:46:38.920Z,3.30
2018-07-25T06:49:06.738Z,3.67
2018-07-25T06:51:33.664Z,5.53
2018-07-25T06:54:00.613Z,4.67
2018-07-25T06:56:27.552Z,4.13
2018-07-25T06:58:54.508Z,3.03
2018-07-25T07:01:21.473Z,4.60
2018-07-25T07:03:48.425Z,2.43
2018-07-25T07:06:15.361Z,3.13
2018-07-25T07:08:42.308Z,2.97
2018-07-25T07:11:09.244Z,3.43
2018-07-25T07:13:36.165Z,4.77
2018-07-25T07:16:03.101Z,4.57
2018-07-25T07:18:30.030Z,6.57
2018-07-25T07:20:56.948Z,4.77
2018-07-25T07:23:23.913Z,4.40
2018-07-25T07:25:50.909Z,2.97
2018-07-25T07:28:17.808Z,3.73
2018-07-25T07:30:44.720Z,2.80
2018-07-25T07:33:11.663Z,5.50
2018-07-25T07:35:38.819Z,3.97
2018-07-25T07:38:05.810Z,4.77
2018-07-25T07:40:32.744Z,2.20
2018-07-25T07:42:59.658Z,2.90
2018-07-25T07:45:26.585Z,2.40
2018-07-25T07:47:53.534Z,3.63
2018-07-25T07:50:20.470Z,2.70
2018-07-25T07:52:47.388Z,2.90
2018-07-25T07:55:14.311Z,3.40
2018-07-25T07:57:41.227Z,4.00
2018-07-25T08:00:08.210Z,2.40
2018-07-25T08:02:35.546Z,4.43
2018-07-25T08:05:02.626Z,3.93
2018-07-25T08:07:29.556Z,3.53
2018-07-25T08:09:56.496Z,2.60
2018-07-25T08:12:23.436Z,3.23
2018-07-25T08:14:50.370Z,2.93
2018-07-25T08:17:17.291Z,4.80
2018-07-25T08:19:44.261Z,3.13
2018-07-25T08:22:11.132Z,3.07
2018-07-25T08:24:38.055Z,3.17
2018-07-25T08:27:04.981Z,2.80
2018-07-25T08:29:31.925Z,3.40
2018-07-25T08:31:59.628Z,2.33
2018-07-25T08:34:26.613Z,2.07
2018-07-25T08:36:53.488Z,2.27
2018-07-25T08:39:20.416Z,3.23
2018-07-25T08:41:47.358Z,3.43
2018-07-25T08:44:14.301Z,2.30
2018-07-25T08:46:41.269Z,3.60
2018-07-25T08:49:08.216Z,4.67
2018-07-25T08:51:35.124Z,3.13
2018-07-25T08:54:02.083Z,2.67
2018-07-25T08:56:29.047Z,2.30
2018-07-25T08:58:56.020Z,2.63
2018-07-25T09:01:23.281Z,4.33
2018-07-25T09:03:50.228Z,3.20
2018-07-25T09:06:17.190Z,3.10
2018-07-25T09:08:45.098Z,3.90
2018-07-25T09:11:12.088Z,3.83
2018-07-25T09:13:39.037Z,3.10
2018-07-25T09:16:06.111Z,3.27
2018-07-25T09:18:33.067Z,2.50
2018-07-25T09:21:00.017Z,3.33
2018-07-25T09:23:26.928Z,2.70
2018-07-25T09:25:53.892Z,2.60
2018-07-25T09:28:20.840Z,2.50
2018-07-25T09:30:47.811Z,3.10
2018-07-25T09:33:14.744Z,5.10
2018-07-25T09:35:41.692Z,2.70
2018-07-25T09:38:08.604Z,6.53
2018-07-25T09:40:35.540Z,3.00
2018-07-25T09:43:02.483Z,3.57
2018-07-25T09:45:29.420Z,2.73
2018-07-25T09:47:56.348Z,3.13
2018-07-25T09:50:23.332Z,4.07
2018-07-25T09:52:50.296Z,3.53
2018-07-25T09:55:17.232Z,5.23
2018-07-25T09:57:44.161Z,2.60
2018-07-25T10:00:12.382Z,3.03
2018-07-25T10:02:40.011Z,4.83
2018-07-25T10:05:07.706Z,3.70
2018-07-25T10:07:34.773Z,5.37
2018-07-25T10:10:01.653Z,6.33
2018-07-25T10:12:28.644Z,3.40
2018-07-25T10:14:55.731Z,4.43
2018-07-25T10:17:22.640Z,2.60
2018-07-25T10:19:49.604Z,4.13
2018-07-25T10:22:16.528Z,3.77
2018-07-25T10:24:43.506Z,3.43
2018-07-25T10:27:10.507Z,4.33
2018-07-25T10:29:37.377Z,2.97
2018-07-25T10:32:04.467Z,2.40
2018-07-25T10:34:31.361Z,3.60
2018-07-25T10:36:58.278Z,3.47
2018-07-25T10:39:25.228Z,5.20
2018-07-25T10:41:52.170Z,2.90
2018-07-25T10:44:19.185Z,2.67
2018-07-25T10:46:46.128Z,3.00
2018-07-25T10:49:13.045Z,4.73
2018-07-25T10:51:39.997Z,3.50
2018-07-25T10:54:06.919Z,5.17
2018-07-25T10:56:33.865Z,2.20
2018-07-25T10:59:00.796Z,7.47
2018-07-25T11:01:27.739Z,3.67
2018-07-25T11:03:54.686Z,4.93
2018-07-25T11:06:21.655Z,4.83
2018-07-25T11:08:48.704Z,4.33
2018-07-25T11:11:15.672Z,4.60
2018-07-25T11:13:42.628Z,3.50
2018-07-25T11:16:09.620Z,3.00
2018-07-25T11:18:36.632Z,4.27
2018-07-25T11:21:03.565Z,3.93
2018-07-25T11:23:30.477Z,5.87
2018-07-25T11:25:57.421Z,4.13
2018-07-25T11:28:24.717Z,4.00
2018-07-25T11:30:51.650Z,3.73
2018-07-25T11:33:18.733Z,5.43
2018-07-25T11:35:45.653Z,5.43
2018-07-25T11:38:12.604Z,7.57
2018-07-25T11:40:39.528Z,4.33
2018-07-25T11:43:06.486Z,3.97
2018-07-25T11:45:33.416Z,3.87
2018-07-25T11:48:00.352Z,3.57
2018-07-25T11:50:27.374Z,5.07
2018-07-25T11:52:54.557Z,4.27
2018-07-25T11:55:21.487Z,4.33
2018-07-25T11:57:48.405Z,3.67
2018-07-25T12:00:15.367Z,4.97
2018-07-25T12:02:42.317Z,3.13
2018-07-25T12:05:09.237Z,3.93
2018-07-25T12:07:36.148Z,3.20
2018-07-25T12:10:03.348Z,3.00
2018-07-25T12:12:30.284Z,3.40
2018-07-25T12:14:57.213Z,4.90
2018-07-25T12:17:24.164Z,3.63
2018-07-25T12:19:51.100Z,2.87
2018-07-25T12:22:18.043Z,4.33
2018-07-25T12:24:44.950Z,5.30
2018-07-25T12:27:11.882Z,3.73
2018-07-25T12:29:38.809Z,3.53
2018-07-25T12:32:05.830Z,3.97
2018-07-25T12:34:32.724Z,5.00
2018-07-25T12:36:59.709Z,4.67
2018-07-25T12:39:26.668Z,4.03
2018-07-25T12:41:53.621Z,2.90
2018-07-25T12:44:20.561Z,3.47
2018-07-25T12:46:47.509Z,3.37
2018-07-25T12:49:14.448Z,2.87
2018-07-25T12:51:41.373Z,5.67
2018-07-25T12:54:08.340Z,3.73
2018-07-25T12:56:35.220Z,3.47
2018-07-25T12:59:02.165Z,4.67
2018-07-25T13:01:29.092Z,4.60
2018-07-25T13:03:56.017Z,4.07
2018-07-25T13:06:22.940Z,3.47
2018-07-25T13:08:49.907Z,3.00
2018-07-25T13:11:16.832Z,3.63
2018-07-25T13:13:43.760Z,3.93
2018-07-25T13:16:10.693Z,3.10
2018-07-25T13:18:38.021Z,2.80
2018-07-25T13:21:04.996Z,4.50
2018-07-25T13:23:31.937Z,5.97
2018-07-25T13:25:58.868Z,3.10
2018-07-25T13:28:25.918Z,3.80
2018-07-25T13:30:52.761Z,3.00
2018-07-25T13:33:19.690Z,3.27
2018-07-25T13:35:46.608Z,20.67
2018-07-25T13:38:13.555Z,9.30
2018-07-25T13:40:40.492Z,6.37
2018-07-25T13:43:07.437Z,10.87
2018-07-25T13:45:34.487Z,9.17
2018-07-25T13:48:01.294Z,6.73
2018-07-25T13:50:28.220Z,5.37
2018-07-25T13:52:55.145Z,10.07
2018-07-25T13:55:22.071Z,13.17
2018-07-25T13:57:49.007Z,9.37
2018-07-25T14:00:15.931Z,8.80
2018-07-25T14:02:42.854Z,9.47
2018-07-25T14:05:09.832Z,8.43
2018-07-25T14:07:36.700Z,8.27
2018-07-25T14:10:04.247Z,11.83
2018-07-25T14:12:31.152Z,7.80
2018-07-25T14:14:58.101Z,6.80
2018-07-25T14:17:25.028Z,3.97
2018-07-25T14:19:51.969Z,5.23
2018-07-25T14:22:18.952Z,3.67
2018-07-25T14:24:45.885Z,2.70
2018-07-25T14:27:12.908Z,3.30
2018-07-25T14:29:39.769Z,3.67
2018-07-25T14:32:06.917Z,4.43
2018-07-25T14:34:33.868Z,5.13
2018-07-25T14:37:00.816Z,4.53
2018-07-25T14:39:27.786Z,5.00
2018-07-25T14:41:54.709Z,5.00
2018-07-25T14:44:21.636Z,5.37
2018-07-25T14:46:48.585Z,5.73
2018-07-25T14:49:15.504Z,5.07
2018-07-25T14:51:42.437Z,4.13
2018-07-25T14:54:09.428Z,5.30
2018-07-25T14:56:36.369Z,6.60
2018-07-25T14:59:03.297Z,4.93
2018-07-25T15:01:30.233Z,4.90
2018-07-25T15:03:57.180Z,4.97
2018-07-25T15:06:24.114Z,4.77
2018-07-25T15:08:51.045Z,5.57
2018-07-25T15:11:17.957Z,5.10
2018-07-25T15:13:44.922Z,5.80
2018-07-25T15:16:11.848Z,7.30
2018-07-25T15:18:38.792Z,5.17
2018-07-25T15:21:05.995Z,5.40
2018-07-25T15:23:44.547Z,6.17
2018-07-25T15:26:11.357Z,6.57
2018-07-25T15:28:38.317Z,4.90
2018-07-25T15:31:05.246Z,4.70
2018-07-25T15:33:32.268Z,5.17
2018-07-25T15:35:59.195Z,4.83
2018-07-25T15:38:26.133Z,4.50
2018-07-25T15:40:53.088Z,4.60
2018-07-25T15:43:20.033Z,5.20
2018-07-25T15:45:47.092Z,4.40
2018-07-25T15:48:14.105Z,8.53
2018-07-25T15:50:41.060Z,4.03
2018-07-25T15:53:08.038Z,3.23
2018-07-25T15:55:34.988Z,3.23
2018-07-25T15:58:01.922Z,3.10
2018-07-25T16:00:28.857Z,3.67
2018-07-25T16:02:55.773Z,7.63
2018-07-25T16:05:22.764Z,4.20
2018-07-25T16:07:49.757Z,3.40
2018-07-25T16:10:16.737Z,3.13
2018-07-25T16:12:43.708Z,3.30
2018-07-25T16:15:10.707Z,4.23
2018-07-25T16:17:37.669Z,6.33
2018-07-25T16:20:04.689Z,5.33
2018-07-25T16:22:31.633Z,4.10
2018-07-25T16:24:58.620Z,7.30
2018-07-25T16:27:25.592Z,3.60
2018-07-25T16:29:52.537Z,3.50
2018-07-25T16:32:19.529Z,4.17
2018-07-25T16:34:46.485Z,4.50
2018-07-25T16:37:13.441Z,4.03
2018-07-25T16:39:40.420Z,4.60
2018-07-25T16:42:07.384Z,4.63
2018-07-25T16:44:34.345Z,4.47
2018-07-25T16:47:01.316Z,4.80
2018-07-25T16:49:28.258Z,4.67
2018-07-25T16:51:55.247Z,5.20
2018-07-25T16:54:22.189Z,5.23
2018-07-25T16:56:49.142Z,5.00
2018-07-25T16:59:16.047Z,6.00
2018-07-25T17:01:42.972Z,5.10
2018-07-25T17:04:09.917Z,5.60
2018-07-25T17:06:36.881Z,4.63
2018-07-25T17:09:06.553Z,5.53
2018-07-25T17:11:33.512Z,4.03
2018-07-25T17:14:00.444Z,4.17
2018-07-25T17:16:27.389Z,5.17
2018-07-25T17:18:54.338Z,5.20
2018-07-25T17:21:21.272Z,6.97
2018-07-25T17:23:48.205Z,4.83
2018-07-25T17:26:15.149Z,4.90
2018-07-25T17:28:42.112Z,4.10
2018-07-25T17:31:09.074Z,5.67
2018-07-25T17:33:36.024Z,4.53
2018-07-25T17:36:02.989Z,3.93
2018-07-25T17:38:29.918Z,4.27
2018-07-25T17:40:56.853Z,3.83
2018-07-25T17:43:23.816Z,4.20
2018-07-25T17:45:50.772Z,4.63
2018-07-25T17:48:17.723Z,4.73
2018-07-25T17:50:44.686Z,7.10
2018-07-25T17:53:13.189Z,5.20
2018-07-25T17:55:40.129Z,6.80
2018-07-25T17:58:07.101Z,4.60
2018-07-25T18:00:34.048Z,8.27
2018-07-25T18:03:00.985Z,4.57
2018-07-25T18:05:27.929Z,7.30
2018-07-25T18:07:54.854Z,5.07
2018-07-25T18:10:21.802Z,5.47
2018-07-25T18:12:48.767Z,5.00
2018-07-25T18:15:15.700Z,5.30
2018-07-25T18:17:42.604Z,5.60
2018-07-25T18:20:09.550Z,6.00
2018-07-25T18:22:36.468Z,5.57
2018-07-25T18:25:03.752Z,5.13
2018-07-25T18:27:30.768Z,5.80
2018-07-25T18:29:57.799Z,5.77
2018-07-25T18:32:24.758Z,5.93
2018-07-25T18:34:51.720Z,7.90
2018-07-25T18:37:19.479Z,6.33
2018-07-25T18:39:46.465Z,7.33
2018-07-25T18:42:13.407Z,5.77
2018-07-25T18:44:40.340Z,6.87
2018-07-25T18:47:07.382Z,5.23
2018-07-25T18:49:34.277Z,5.57
2018-07-25T18:52:01.229Z,5.80
2018-07-25T18:54:28.366Z,6.13
2018-07-25T18:56:55.318Z,5.57
2018-07-25T18:59:22.570Z,6.90
2018-07-25T19:01:49.691Z,6.03
2018-07-25T19:04:16.712Z,6.10
2018-07-25T19:06:43.654Z,5.63
2018-07-25T19:09:15.140Z,6.77
2018-07-25T19:11:42.109Z,5.83
2018-07-25T19:14:15.087Z,5.97
2018-07-25T19:16:42.023Z,6.27
2018-07-25T19:19:09.595Z,6.53
2018-07-25T19:21:36.596Z,6.43
2018-07-25T19:24:03.509Z,5.97
2018-07-25T19:26:30.420Z,6.23
2018-07-25T19:28:57.464Z,5.60
2018-07-25T19:31:24.473Z,6.20
2018-07-25T19:33:51.398Z,6.43
2018-07-25T19:36:18.353Z,9.00
2018-07-25T19:38:45.253Z,6.47
2018-07-25T19:41:12.188Z,6.30
2018-07-25T19:43:39.088Z,5.93
2018-07-25T19:46:06.019Z,6.47
2018-07-25T19:48:32.929Z,6.80
2018-07-25T19:50:59.964Z,6.63
2018-07-25T19:53:26.924Z,7.33
2018-07-25T19:55:53.868Z,7.23
2018-07-25T19:58:20.876Z,6.77
2018-07-25T20:00:47.833Z,8.70
2018-07-25T20:03:14.814Z,7.50
2018-07-25T20:05:41.756Z,7.77
2018-07-25T20:08:08.724Z,7.47
2018-07-25T20:10:35.628Z,7.20
2018-07-25T20:13:02.561Z,7.40
2018-07-25T20:15:35.114Z,7.57
2018-07-25T20:18:02.094Z,7.73
2018-07-25T20:20:28.985Z,7.33
2018-07-25T20:22:55.932Z,8.37
2018-07-25T20:25:22.854Z,8.93
2018-07-25T20:27:49.877Z,8.60
2018-07-25T20:30:16.804Z,8.07
2018-07-25T20:32:43.721Z,8.00
2018-07-25T20:35:10.645Z,10.13
2018-07-25T20:37:37.656Z,9.53
2018-07-25T20:40:04.898Z,9.87
2018-07-25T20:42:31.821Z,10.80
2018-07-25T20:44:58.763Z,11.27
2018-07-25T20:47:25.681Z,10.47
2018-07-25T20:49:52.597Z,12.47
2018-07-25T20:52:19.545Z,10.57
2018-07-25T20:54:46.444Z,11.53
2018-07-25T20:57:13.360Z,9.00
2018-07-25T20:59:40.297Z,9.80
2018-07-25T21:02:07.309Z,9.50
2018-07-25T21:04:34.222Z,9.87
2018-07-25T21:07:01.237Z,10.00
2018-07-25T21:09:28.155Z,9.63
2018-07-25T21:11:55.084Z,9.20
2018-07-25T21:14:22.012Z,11.07
2018-07-25T21:16:48.933Z,9.83
2018-07-25T21:19:15.827Z,11.77
2018-07-25T21:21:42.803Z,11.03
2018-07-25T21:24:09.689Z,9.33
2018-07-25T21:26:36.579Z,10.30
2018-07-25T21:29:03.589Z,10.10
2018-07-25T21:31:30.500Z,9.80
2018-07-25T21:33:57.430Z,9.80
2018-07-25T21:36:24.353Z,11.20
2018-07-25T21:38:51.284Z,10.93
2018-07-25T21:41:18.177Z,9.93
2018-07-25T21:43:45.089Z,9.80
2018-07-25T21:46:12.009Z,10.43
2018-07-25T21:48:38.910Z,11.80
2018-07-25T21:51:05.987Z,11.30
2018-07-25T21:53:32.853Z,12.13
2018-07-25T21:55:59.760Z,12.37
2018-07-25T21:58:26.697Z,11.87
2018-07-25T22:00:55.886Z,10.90
2018-07-25T22:03:22.837Z,10.50
2018-07-25T22:05:49.763Z,12.07
2018-07-25T22:08:16.688Z,11.23
2018-07-25T22:10:43.596Z,11.37
2018-07-25T22:13:10.537Z,11.40
2018-07-25T22:15:37.465Z,12.60
2018-07-25T22:18:04.636Z,10.67
2018-07-25T22:20:31.573Z,11.33
2018-07-25T22:22:58.489Z,11.57
2018-07-25T22:25:25.384Z,10.50
2018-07-25T22:27:52.314Z,12.57
2018-07-25T22:30:19.297Z,12.17
2018-07-25T22:32:46.177Z,11.97
2018-07-25T22:35:13.121Z,16.27
2018-07-25T22:37:40.070Z,18.03
2018-07-25T22:40:06.981Z,18.17
2018-07-25T22:42:33.955Z,19.63
2018-07-25T22:45:00.885Z,15.83
2018-07-25T22:47:27.788Z,19.27
2018-07-25T22:49:54.737Z,14.40
2018-07-25T22:52:21.648Z,14.87
2018-07-25T22:54:48.858Z,14.80
2018-07-25T22:57:15.760Z,13.77
2018-07-25T22:59:43.184Z,14.20
2018-07-25T23:02:10.169Z,14.37
2018-07-25T23:04:37.073Z,19.37
2018-07-25T23:07:05.313Z,16.43
2018-07-25T23:09:32.991Z,14.43
2018-07-25T23:12:00.618Z,14.60
2018-07-25T23:14:27.560Z,17.43
2018-07-25T23:16:54.487Z,14.30
2018-07-25T23:19:22.155Z,14.53
2018-07-25T23:21:49.096Z,14.73
2018-07-25T23:24:16.726Z,15.10
2018-07-25T23:26:46.644Z,15.60
2018-07-25T23:29:13.616Z,15.07
2018-07-25T23:31:40.535Z,19.37
2018-07-25T23:34:07.469Z,17.10
2018-07-25T23:36:34.380Z,15.77
2018-07-25T23:39:01.290Z,15.47
2018-07-25T23:41:28.829Z,15.77
2018-07-25T23:43:55.792Z,16.60
2018-07-25T23:46:22.697Z,14.77
2018-07-25T23:48:49.633Z,18.90
2018-07-25T23:51:16.565Z,20.27
2018-07-25T23:53:43.688Z,16.27
2018-07-25T23:56:10.597Z,16.90
2018-07-25T23:58:38.596Z,15.53
